Aviation Digital Data Service (ADDS)

Output produced by METARs form (0236 UTC 12 May 2021)
found at http://www.aviationweather.gov/metar/data/
 
METAR text: LFBA 120230Z AUTO 11007KT 9999 SCT003 BKN140 OVC190 07/07 Q1015
Conditions at: LFBA (AGEN/LA GARENNE , FR) observed 0230 UTC 12 May 2021
Temperature: 7.0°C (45°F)
Dewpoint: 7.0°C (45°F) [RH = 100%]
Pressure (altimeter): 29.97 inches Hg (1015.0 mb)
Winds: from the ESE (110 degrees) at 8 MPH (7 knots; 3.6 m/s)
Visibility: 6 or more miles (10+ km)
Ceiling: 14000 feet AGL
Clouds: scattered clouds at 300 feet AGL
broken clouds at 14000 feet AGL
overcast cloud deck at 19000 feet AGL
Weather: no significant weather observed at this time